sensor_id;sensor_type;location;lat;lon;timestamp;P1;durP1;ratioP1;P2;durP2;ratioP2
79664;SDS011;69132;44.014;20.918;2023-05-18T00:00:41;7.30;;;6.57;;
79664;SDS011;69132;44.014;20.918;2023-05-18T00:03:09;8.00;;;6.63;;
79664;SDS011;69132;44.014;20.918;2023-05-18T00:05:35;7.72;;;7.03;;
79664;SDS011;69132;44.014;20.918;2023-05-18T00:08:01;6.93;;;6.32;;
79664;SDS011;69132;44.014;20.918;2023-05-18T00:10:28;7.88;;;6.43;;
79664;SDS011;69132;44.014;20.918;2023-05-18T00:12:54;7.72;;;5.97;;
79664;SDS011;69132;44.014;20.918;2023-05-18T00:15:20;8.10;;;7.15;;
79664;SDS011;69132;44.014;20.918;2023-05-18T00:17:47;8.68;;;7.10;;
79664;SDS011;69132;44.014;20.918;2023-05-18T00:20:14;8.02;;;7.22;;
79664;SDS011;69132;44.014;20.918;2023-05-18T00:22:42;9.43;;;7.72;;
79664;SDS011;69132;44.014;20.918;2023-05-18T00:25:08;10.15;;;8.13;;
79664;SDS011;69132;44.014;20.918;2023-05-18T00:27:34;10.82;;;9.73;;
79664;SDS011;69132;44.014;20.918;2023-05-18T00:30:00;15.65;;;12.52;;
79664;SDS011;69132;44.014;20.918;2023-05-18T00:32:27;19.58;;;16.23;;
79664;SDS011;69132;44.014;20.918;2023-05-18T00:34:53;19.65;;;15.20;;
79664;SDS011;69132;44.014;20.918;2023-05-18T00:37:19;17.85;;;15.75;;
79664;SDS011;69132;44.014;20.918;2023-05-18T00:39:45;17.63;;;14.45;;
79664;SDS011;69132;44.014;20.918;2023-05-18T00:42:11;20.83;;;15.00;;
79664;SDS011;69132;44.014;20.918;2023-05-18T00:44:37;16.50;;;13.93;;
79664;SDS011;69132;44.014;20.918;2023-05-18T00:47:03;18.17;;;13.63;;
79664;SDS011;69132;44.014;20.918;2023-05-18T00:49:29;16.83;;;14.50;;
79664;SDS011;69132;44.014;20.918;2023-05-18T00:51:56;16.25;;;13.38;;
79664;SDS011;69132;44.014;20.918;2023-05-18T00:54:22;16.80;;;12.85;;
79664;SDS011;69132;44.014;20.918;2023-05-18T00:56:49;13.35;;;11.82;;
79664;SDS011;69132;44.014;20.918;2023-05-18T00:59:16;14.38;;;12.45;;
79664;SDS011;69132;44.014;20.918;2023-05-18T01:01:42;15.98;;;11.80;;
79664;SDS011;69132;44.014;20.918;2023-05-18T01:04:10;13.90;;;11.80;;
79664;SDS011;69132;44.014;20.918;2023-05-18T01:06:38;14.55;;;12.55;;
79664;SDS011;69132;44.014;20.918;2023-05-18T01:09:06;14.30;;;12.73;;
79664;SDS011;69132;44.014;20.918;2023-05-18T01:11:34;15.90;;;13.10;;
79664;SDS011;69132;44.014;20.918;2023-05-18T01:16:30;17.20;;;13.52;;
79664;SDS011;69132;44.014;20.918;2023-05-18T01:19:22;18.50;;;14.75;;
79664;SDS011;69132;44.014;20.918;2023-05-18T01:24:22;18.70;;;15.45;;
79664;SDS011;69132;44.014;20.918;2023-05-18T01:26:50;16.73;;;14.48;;
79664;SDS011;69132;44.014;20.918;2023-05-18T01:29:21;18.13;;;13.88;;
79664;SDS011;69132;44.014;20.918;2023-05-18T01:31:50;13.50;;;11.63;;
79664;SDS011;69132;44.014;20.918;2023-05-18T01:34:16;14.25;;;12.45;;
79664;SDS011;69132;44.014;20.918;2023-05-18T01:36:42;12.73;;;11.43;;
79664;SDS011;69132;44.014;20.918;2023-05-18T01:39:08;13.13;;;11.35;;
79664;SDS011;69132;44.014;20.918;2023-05-18T01:41:35;8.90;;;8.00;;
79664;SDS011;69132;44.014;20.918;2023-05-18T01:44:05;4.15;;;3.75;;
79664;SDS011;69132;44.014;20.918;2023-05-18T01:46:34;3.78;;;3.47;;
79664;SDS011;69132;44.014;20.918;2023-05-18T01:49:04;4.40;;;2.50;;
79664;SDS011;69132;44.014;20.918;2023-05-18T01:51:32;1.90;;;1.45;;
79664;SDS011;69132;44.014;20.918;2023-05-18T01:54:04;1.90;;;1.63;;
79664;SDS011;69132;44.014;20.918;2023-05-18T01:56:32;2.60;;;1.20;;
79664;SDS011;69132;44.014;20.918;2023-05-18T01:58:58;1.60;;;1.50;;
79664;SDS011;69132;44.014;20.918;2023-05-18T02:01:25;0.95;;;0.95;;
79664;SDS011;69132;44.014;20.918;2023-05-18T02:03:51;1.45;;;1.10;;
79664;SDS011;69132;44.014;20.918;2023-05-18T02:06:17;2.05;;;0.90;;
79664;SDS011;69132;44.014;20.918;2023-05-18T02:08:43;1.17;;;1.10;;
79664;SDS011;69132;44.014;20.918;2023-05-18T02:11:09;1.20;;;1.10;;
79664;SDS011;69132;44.014;20.918;2023-05-18T02:13:35;2.63;;;1.20;;
79664;SDS011;69132;44.014;20.918;2023-05-18T02:16:04;1.42;;;1.10;;
79664;SDS011;69132;44.014;20.918;2023-05-18T02:18:30;0.80;;;0.80;;
79664;SDS011;69132;44.014;20.918;2023-05-18T02:21:00;1.20;;;1.10;;
79664;SDS011;69132;44.014;20.918;2023-05-18T02:23:26;0.80;;;0.80;;
79664;SDS011;69132;44.014;20.918;2023-05-18T02:25:52;1.05;;;1.05;;
79664;SDS011;69132;44.014;20.918;2023-05-18T02:28:22;1.25;;;1.10;;
79664;SDS011;69132;44.014;20.918;2023-05-18T02:30:48;1.25;;;1.15;;
79664;SDS011;69132;44.014;20.918;2023-05-18T02:33:14;1.85;;;1.25;;
79664;SDS011;69132;44.014;20.918;2023-05-18T02:35:41;1.30;;;1.20;;
79664;SDS011;69132;44.014;20.918;2023-05-18T02:38:10;1.77;;;1.05;;
79664;SDS011;69132;44.014;20.918;2023-05-18T02:40:36;1.27;;;1.17;;
79664;SDS011;69132;44.014;20.918;2023-05-18T02:43:02;1.30;;;1.20;;
79664;SDS011;69132;44.014;20.918;2023-05-18T02:45:28;1.38;;;1.27;;
79664;SDS011;69132;44.014;20.918;2023-05-18T02:47:55;1.30;;;1.20;;
79664;SDS011;69132;44.014;20.918;2023-05-18T02:50:22;1.30;;;1.20;;
79664;SDS011;69132;44.014;20.918;2023-05-18T02:52:48;1.25;;;1.15;;
79664;SDS011;69132;44.014;20.918;2023-05-18T02:55:15;1.45;;;1.10;;
79664;SDS011;69132;44.014;20.918;2023-05-18T02:57:41;1.65;;;1.50;;
79664;SDS011;69132;44.014;20.918;2023-05-18T03:00:11;1.50;;;1.38;;
79664;SDS011;69132;44.014;20.918;2023-05-18T03:02:38;2.20;;;1.60;;
79664;SDS011;69132;44.014;20.918;2023-05-18T03:05:04;1.60;;;1.50;;
79664;SDS011;69132;44.014;20.918;2023-05-18T03:07:30;1.58;;;1.40;;
79664;SDS011;69132;44.014;20.918;2023-05-18T03:09:57;3.90;;;1.70;;
79664;SDS011;69132;44.014;20.918;2023-05-18T03:12:23;1.80;;;1.70;;
79664;SDS011;69132;44.014;20.918;2023-05-18T03:14:49;1.58;;;1.48;;
79664;SDS011;69132;44.014;20.918;2023-05-18T03:17:15;2.05;;;1.42;;
79664;SDS011;69132;44.014;20.918;2023-05-18T03:19:41;1.95;;;1.80;;
79664;SDS011;69132;44.014;20.918;2023-05-18T03:22:07;3.53;;;1.92;;
79664;SDS011;69132;44.014;20.918;2023-05-18T03:24:33;1.85;;;1.75;;
79664;SDS011;69132;44.014;20.918;2023-05-18T03:27:04;2.20;;;2.00;;
79664;SDS011;69132;44.014;20.918;2023-05-18T03:29:31;2.10;;;1.90;;
79664;SDS011;69132;44.014;20.918;2023-05-18T03:31:58;1.98;;;1.60;;
79664;SDS011;69132;44.014;20.918;2023-05-18T03:34:24;1.63;;;1.52;;
79664;SDS011;69132;44.014;20.918;2023-05-18T03:36:50;2.30;;;2.10;;
79664;SDS011;69132;44.014;20.918;2023-05-18T03:39:18;1.73;;;1.63;;
79664;SDS011;69132;44.014;20.918;2023-05-18T03:41:45;2.75;;;1.80;;
79664;SDS011;69132;44.014;20.918;2023-05-18T03:44:11;2.10;;;1.90;;
79664;SDS011;69132;44.014;20.918;2023-05-18T03:46:37;2.88;;;1.60;;
79664;SDS011;69132;44.014;20.918;2023-05-18T03:49:03;2.80;;;1.60;;
79664;SDS011;69132;44.014;20.918;2023-05-18T03:51:31;1.30;;;1.20;;
79664;SDS011;69132;44.014;20.918;2023-05-18T03:53:57;1.40;;;1.30;;
79664;SDS011;69132;44.014;20.918;2023-05-18T03:56:23;1.33;;;1.23;;
79664;SDS011;69132;44.014;20.918;2023-05-18T03:58:50;1.77;;;1.55;;
79664;SDS011;69132;44.014;20.918;2023-05-18T04:01:16;4.03;;;1.50;;
79664;SDS011;69132;44.014;20.918;2023-05-18T04:03:43;1.35;;;1.25;;
79664;SDS011;69132;44.014;20.918;2023-05-18T04:06:09;1.50;;;1.20;;
79664;SDS011;69132;44.014;20.918;2023-05-18T04:08:35;1.50;;;1.35;;
79664;SDS011;69132;44.014;20.918;2023-05-18T04:11:02;1.20;;;1.10;;
79664;SDS011;69132;44.014;20.918;2023-05-18T04:13:28;1.38;;;1.27;;
79664;SDS011;69132;44.014;20.918;2023-05-18T04:15:54;1.60;;;1.20;;
79664;SDS011;69132;44.014;20.918;2023-05-18T04:18:22;5.90;;;1.40;;
79664;SDS011;69132;44.014;20.918;2023-05-18T04:20:48;1.35;;;1.20;;
79664;SDS011;69132;44.014;20.918;2023-05-18T04:23:14;1.60;;;1.05;;
79664;SDS011;69132;44.014;20.918;2023-05-18T04:25:40;4.18;;;1.90;;
79664;SDS011;69132;44.014;20.918;2023-05-18T04:28:07;1.92;;;1.35;;
79664;SDS011;69132;44.014;20.918;2023-05-18T04:30:34;2.58;;;1.30;;
79664;SDS011;69132;44.014;20.918;2023-05-18T04:33:01;1.85;;;1.27;;
79664;SDS011;69132;44.014;20.918;2023-05-18T04:35:28;1.70;;;1.60;;
79664;SDS011;69132;44.014;20.918;2023-05-18T04:37:55;1.70;;;1.35;;
79664;SDS011;69132;44.014;20.918;2023-05-18T04:40:22;1.40;;;1.30;;
79664;SDS011;69132;44.014;20.918;2023-05-18T04:42:49;1.60;;;1.30;;
79664;SDS011;69132;44.014;20.918;2023-05-18T04:45:15;1.40;;;1.30;;
79664;SDS011;69132;44.014;20.918;2023-05-18T04:47:44;2.13;;;1.92;;
79664;SDS011;69132;44.014;20.918;2023-05-18T04:50:11;4.45;;;2.13;;
79664;SDS011;69132;44.014;20.918;2023-05-18T04:52:37;1.40;;;1.30;;
79664;SDS011;69132;44.014;20.918;2023-05-18T04:55:06;3.03;;;1.50;;
79664;SDS011;69132;44.014;20.918;2023-05-18T04:57:35;2.00;;;1.63;;
79664;SDS011;69132;44.014;20.918;2023-05-18T05:00:02;1.77;;;1.52;;
79664;SDS011;69132;44.014;20.918;2023-05-18T05:04:57;2.30;;;1.55;;
79664;SDS011;69132;44.014;20.918;2023-05-18T05:07:23;1.73;;;1.52;;
79664;SDS011;69132;44.014;20.918;2023-05-18T05:09:50;3.45;;;1.60;;
79664;SDS011;69132;44.014;20.918;2023-05-18T05:12:16;1.83;;;1.58;;
79664;SDS011;69132;44.014;20.918;2023-05-18T05:14:42;1.48;;;1.20;;
79664;SDS011;69132;44.014;20.918;2023-05-18T05:17:09;1.40;;;1.30;;
79664;SDS011;69132;44.014;20.918;2023-05-18T05:19:36;1.50;;;1.30;;
79664;SDS011;69132;44.014;20.918;2023-05-18T05:22:03;1.52;;;1.40;;
79664;SDS011;69132;44.014;20.918;2023-05-18T05:24:31;2.10;;;1.10;;
79664;SDS011;69132;44.014;20.918;2023-05-18T05:26:57;1.48;;;1.25;;
79664;SDS011;69132;44.014;20.918;2023-05-18T05:29:24;2.17;;;1.35;;
79664;SDS011;69132;44.014;20.918;2023-05-18T05:31:51;2.58;;;1.20;;
79664;SDS011;69132;44.014;20.918;2023-05-18T05:34:18;2.47;;;1.40;;
79664;SDS011;69132;44.014;20.918;2023-05-18T05:36:46;1.58;;;1.42;;
79664;SDS011;69132;44.014;20.918;2023-05-18T05:41:38;1.77;;;1.30;;
79664;SDS011;69132;44.014;20.918;2023-05-18T05:44:04;1.77;;;1.30;;
79664;SDS011;69132;44.014;20.918;2023-05-18T05:46:31;4.60;;;1.50;;
79664;SDS011;69132;44.014;20.918;2023-05-18T05:48:57;1.52;;;1.15;;
79664;SDS011;69132;44.014;20.918;2023-05-18T05:51:24;2.05;;;1.30;;
79664;SDS011;69132;44.014;20.918;2023-05-18T05:53:51;2.15;;;1.40;;
79664;SDS011;69132;44.014;20.918;2023-05-18T05:56:18;1.48;;;1.30;;
79664;SDS011;69132;44.014;20.918;2023-05-18T05:58:44;1.52;;;1.30;;
79664;SDS011;69132;44.014;20.918;2023-05-18T06:01:10;1.77;;;1.60;;
79664;SDS011;69132;44.014;20.918;2023-05-18T06:03:39;2.10;;;1.60;;
79664;SDS011;69132;44.014;20.918;2023-05-18T06:06:05;2.30;;;2.10;;
79664;SDS011;69132;44.014;20.918;2023-05-18T06:08:31;2.40;;;2.13;;
79664;SDS011;69132;44.014;20.918;2023-05-18T06:10:57;2.05;;;1.85;;
79664;SDS011;69132;44.014;20.918;2023-05-18T06:13:23;2.92;;;1.73;;
79664;SDS011;69132;44.014;20.918;2023-05-18T06:15:49;2.42;;;1.63;;
79664;SDS011;69132;44.014;20.918;2023-05-18T06:18:15;3.42;;;2.08;;
79664;SDS011;69132;44.014;20.918;2023-05-18T06:20:41;2.30;;;2.10;;
79664;SDS011;69132;44.014;20.918;2023-05-18T06:23:09;4.43;;;2.53;;
79664;SDS011;69132;44.014;20.918;2023-05-18T06:25:35;3.22;;;2.00;;
79664;SDS011;69132;44.014;20.918;2023-05-18T06:28:01;3.47;;;3.17;;
79664;SDS011;69132;44.014;20.918;2023-05-18T06:30:27;2.10;;;1.92;;
79664;SDS011;69132;44.014;20.918;2023-05-18T06:32:53;2.70;;;2.00;;
79664;SDS011;69132;44.014;20.918;2023-05-18T06:35:19;2.90;;;2.00;;
79664;SDS011;69132;44.014;20.918;2023-05-18T06:37:46;2.28;;;1.67;;
79664;SDS011;69132;44.014;20.918;2023-05-18T06:40:12;3.33;;;2.22;;
79664;SDS011;69132;44.014;20.918;2023-05-18T06:42:38;2.03;;;1.80;;
79664;SDS011;69132;44.014;20.918;2023-05-18T06:45:05;2.83;;;1.90;;
79664;SDS011;69132;44.014;20.918;2023-05-18T06:47:32;2.58;;;1.80;;
79664;SDS011;69132;44.014;20.918;2023-05-18T06:49:58;2.25;;;1.80;;
79664;SDS011;69132;44.014;20.918;2023-05-18T06:52:25;2.20;;;2.00;;
79664;SDS011;69132;44.014;20.918;2023-05-18T06:54:52;2.97;;;2.40;;
79664;SDS011;69132;44.014;20.918;2023-05-18T06:57:18;3.35;;;3.00;;
79664;SDS011;69132;44.014;20.918;2023-05-18T06:59:44;1.70;;;1.60;;
79664;SDS011;69132;44.014;20.918;2023-05-18T07:02:14;2.30;;;2.08;;
79664;SDS011;69132;44.014;20.918;2023-05-18T07:04:40;3.10;;;2.22;;
79664;SDS011;69132;44.014;20.918;2023-05-18T07:07:06;2.83;;;2.13;;
79664;SDS011;69132;44.014;20.918;2023-05-18T07:09:32;1.63;;;1.52;;
79664;SDS011;69132;44.014;20.918;2023-05-18T07:11:58;3.08;;;2.78;;
79664;SDS011;69132;44.014;20.918;2023-05-18T07:14:24;2.08;;;1.77;;
79664;SDS011;69132;44.014;20.918;2023-05-18T07:16:51;2.30;;;2.10;;
79664;SDS011;69132;44.014;20.918;2023-05-18T07:19:18;2.85;;;2.60;;
79664;SDS011;69132;44.014;20.918;2023-05-18T07:21:44;2.55;;;2.08;;
79664;SDS011;69132;44.014;20.918;2023-05-18T07:24:10;3.10;;;2.17;;
79664;SDS011;69132;44.014;20.918;2023-05-18T07:26:37;3.92;;;2.50;;
79664;SDS011;69132;44.014;20.918;2023-05-18T07:29:03;3.35;;;2.40;;
79664;SDS011;69132;44.014;20.918;2023-05-18T07:31:33;2.85;;;2.58;;
79664;SDS011;69132;44.014;20.918;2023-05-18T07:34:02;2.90;;;2.60;;
79664;SDS011;69132;44.014;20.918;2023-05-18T07:36:30;2.50;;;2.30;;
79664;SDS011;69132;44.014;20.918;2023-05-18T07:38:56;3.25;;;2.50;;
79664;SDS011;69132;44.014;20.918;2023-05-18T07:41:24;3.97;;;2.60;;
79664;SDS011;69132;44.014;20.918;2023-05-18T07:43:52;3.47;;;2.27;;
79664;SDS011;69132;44.014;20.918;2023-05-18T07:46:19;2.88;;;2.10;;
79664;SDS011;69132;44.014;20.918;2023-05-18T07:48:45;2.53;;;2.33;;
79664;SDS011;69132;44.014;20.918;2023-05-18T07:51:11;3.33;;;2.53;;
79664;SDS011;69132;44.014;20.918;2023-05-18T07:53:38;3.10;;;2.80;;
79664;SDS011;69132;44.014;20.918;2023-05-18T07:56:05;3.83;;;2.83;;
79664;SDS011;69132;44.014;20.918;2023-05-18T07:58:35;3.95;;;3.00;;
79664;SDS011;69132;44.014;20.918;2023-05-18T08:01:18;3.42;;;3.05;;
79664;SDS011;69132;44.014;20.918;2023-05-18T08:03:46;3.83;;;2.97;;
79664;SDS011;69132;44.014;20.918;2023-05-18T08:08:43;7.95;;;7.13;;
79664;SDS011;69132;44.014;20.918;2023-05-18T08:11:09;7.07;;;6.38;;
79664;SDS011;69132;44.014;20.918;2023-05-18T08:13:35;5.60;;;4.75;;
79664;SDS011;69132;44.014;20.918;2023-05-18T08:16:02;4.72;;;4.32;;
79664;SDS011;69132;44.014;20.918;2023-05-18T08:18:28;3.53;;;3.22;;
79664;SDS011;69132;44.014;20.918;2023-05-18T08:20:54;5.22;;;4.70;;
79664;SDS011;69132;44.014;20.918;2023-05-18T08:23:20;8.38;;;7.43;;
79664;SDS011;69132;44.014;20.918;2023-05-18T08:25:47;4.80;;;4.30;;
79664;SDS011;69132;44.014;20.918;2023-05-18T08:28:13;5.30;;;4.80;;
79664;SDS011;69132;44.014;20.918;2023-05-18T08:30:41;4.53;;;4.13;;
79664;SDS011;69132;44.014;20.918;2023-05-18T08:33:07;4.30;;;3.22;;
79664;SDS011;69132;44.014;20.918;2023-05-18T08:35:33;7.85;;;3.70;;
79664;SDS011;69132;44.014;20.918;2023-05-18T08:38:00;5.07;;;4.13;;
79664;SDS011;69132;44.014;20.918;2023-05-18T08:40:30;5.10;;;4.30;;
79664;SDS011;69132;44.014;20.918;2023-05-18T08:43:06;5.07;;;3.63;;
79664;SDS011;69132;44.014;20.918;2023-05-18T08:45:51;7.60;;;6.80;;
79664;SDS011;69132;44.014;20.918;2023-05-18T08:48:21;7.78;;;5.90;;
79664;SDS011;69132;44.014;20.918;2023-05-18T08:50:47;7.05;;;6.32;;
79664;SDS011;69132;44.014;20.918;2023-05-18T08:53:15;5.83;;;5.23;;
79664;SDS011;69132;44.014;20.918;2023-05-18T08:55:41;5.07;;;4.03;;
79664;SDS011;69132;44.014;20.918;2023-05-18T08:58:08;4.63;;;4.03;;
79664;SDS011;69132;44.014;20.918;2023-05-18T09:00:37;4.38;;;3.97;;
79664;SDS011;69132;44.014;20.918;2023-05-18T09:03:08;3.90;;;3.60;;
79664;SDS011;69132;44.014;20.918;2023-05-18T09:05:34;3.92;;;3.53;;
79664;SDS011;69132;44.014;20.918;2023-05-18T09:08:01;3.30;;;3.00;;
79664;SDS011;69132;44.014;20.918;2023-05-18T09:10:27;3.63;;;3.33;;
79664;SDS011;69132;44.014;20.918;2023-05-18T09:12:55;3.70;;;3.40;;
79664;SDS011;69132;44.014;20.918;2023-05-18T09:15:22;5.45;;;4.20;;
79664;SDS011;69132;44.014;20.918;2023-05-18T09:17:50;4.97;;;4.57;;
79664;SDS011;69132;44.014;20.918;2023-05-18T09:20:16;5.70;;;5.20;;
79664;SDS011;69132;44.014;20.918;2023-05-18T09:22:42;5.35;;;4.85;;
79664;SDS011;69132;44.014;20.918;2023-05-18T09:25:09;4.28;;;3.88;;
79664;SDS011;69132;44.014;20.918;2023-05-18T09:27:36;4.65;;;4.28;;
79664;SDS011;69132;44.014;20.918;2023-05-18T09:30:02;4.35;;;4.03;;
79664;SDS011;69132;44.014;20.918;2023-05-18T09:32:29;5.85;;;4.22;;
79664;SDS011;69132;44.014;20.918;2023-05-18T09:35:03;4.30;;;3.88;;
79664;SDS011;69132;44.014;20.918;2023-05-18T09:37:30;5.25;;;4.85;;
79664;SDS011;69132;44.014;20.918;2023-05-18T09:39:57;4.63;;;4.10;;
79664;SDS011;69132;44.014;20.918;2023-05-18T09:42:36;5.40;;;4.90;;
79664;SDS011;69132;44.014;20.918;2023-05-18T09:45:23;5.13;;;4.72;;
79664;SDS011;69132;44.014;20.918;2023-05-18T09:47:50;5.82;;;5.28;;
79664;SDS011;69132;44.014;20.918;2023-05-18T09:50:21;5.28;;;4.78;;
79664;SDS011;69132;44.014;20.918;2023-05-18T09:52:47;5.30;;;4.80;;
79664;SDS011;69132;44.014;20.918;2023-05-18T09:55:23;6.85;;;5.53;;
79664;SDS011;69132;44.014;20.918;2023-05-18T09:57:49;6.75;;;5.65;;
79664;SDS011;69132;44.014;20.918;2023-05-18T10:00:17;9.65;;;7.68;;
79664;SDS011;69132;44.014;20.918;2023-05-18T10:02:47;7.57;;;6.13;;
79664;SDS011;69132;44.014;20.918;2023-05-18T10:07:45;5.80;;;4.57;;
79664;SDS011;69132;44.014;20.918;2023-05-18T10:10:11;7.30;;;5.45;;
79664;SDS011;69132;44.014;20.918;2023-05-18T10:12:37;6.10;;;4.90;;
79664;SDS011;69132;44.014;20.918;2023-05-18T10:15:07;6.15;;;5.55;;
79664;SDS011;69132;44.014;20.918;2023-05-18T10:17:34;5.55;;;5.05;;
79664;SDS011;69132;44.014;20.918;2023-05-18T10:20:02;6.75;;;6.15;;
79664;SDS011;69132;44.014;20.918;2023-05-18T10:22:30;5.85;;;4.93;;
79664;SDS011;69132;44.014;20.918;2023-05-18T10:24:59;6.10;;;5.53;;
79664;SDS011;69132;44.014;20.918;2023-05-18T10:27:30;5.38;;;4.88;;
79664;SDS011;69132;44.014;20.918;2023-05-18T10:29:59;5.60;;;5.10;;
79664;SDS011;69132;44.014;20.918;2023-05-18T10:32:28;5.88;;;5.38;;
79664;SDS011;69132;44.014;20.918;2023-05-18T10:34:55;6.13;;;5.55;;
79664;SDS011;69132;44.014;20.918;2023-05-18T10:37:22;5.88;;;5.28;;
79664;SDS011;69132;44.014;20.918;2023-05-18T10:39:51;6.20;;;5.60;;
79664;SDS011;69132;44.014;20.918;2023-05-18T10:42:19;6.35;;;5.75;;
79664;SDS011;69132;44.014;20.918;2023-05-18T10:44:46;7.80;;;6.88;;
79664;SDS011;69132;44.014;20.918;2023-05-18T10:47:15;6.78;;;6.15;;
79664;SDS011;69132;44.014;20.918;2023-05-18T10:49:42;7.40;;;6.60;;
79664;SDS011;69132;44.014;20.918;2023-05-18T10:52:09;11.77;;;8.15;;
79664;SDS011;69132;44.014;20.918;2023-05-18T10:54:36;8.38;;;7.57;;
79664;SDS011;69132;44.014;20.918;2023-05-18T10:57:05;8.55;;;7.63;;
79664;SDS011;69132;44.014;20.918;2023-05-18T10:59:31;8.50;;;7.70;;
79664;SDS011;69132;44.014;20.918;2023-05-18T11:01:59;8.00;;;7.20;;
79664;SDS011;69132;44.014;20.918;2023-05-18T11:04:26;9.18;;;7.82;;
79664;SDS011;69132;44.014;20.918;2023-05-18T11:06:55;10.18;;;8.80;;
79664;SDS011;69132;44.014;20.918;2023-05-18T11:09:22;14.10;;;7.32;;
79664;SDS011;69132;44.014;20.918;2023-05-18T11:11:52;6.65;;;5.43;;
79664;SDS011;69132;44.014;20.918;2023-05-18T11:14:26;8.15;;;7.30;;
79664;SDS011;69132;44.014;20.918;2023-05-18T11:16:52;8.15;;;7.45;;
79664;SDS011;69132;44.014;20.918;2023-05-18T11:19:23;7.57;;;6.75;;
79664;SDS011;69132;44.014;20.918;2023-05-18T11:21:51;8.10;;;7.30;;
79664;SDS011;69132;44.014;20.918;2023-05-18T11:27:00;8.23;;;6.35;;
79664;SDS011;69132;44.014;20.918;2023-05-18T11:31:57;5.57;;;5.07;;
79664;SDS011;69132;44.014;20.918;2023-05-18T11:34:39;7.13;;;6.40;;
79664;SDS011;69132;44.014;20.918;2023-05-18T11:37:09;7.10;;;5.25;;
79664;SDS011;69132;44.014;20.918;2023-05-18T11:39:35;5.93;;;5.30;;
79664;SDS011;69132;44.014;20.918;2023-05-18T11:42:05;6.72;;;6.07;;
79664;SDS011;69132;44.014;20.918;2023-05-18T11:44:32;7.93;;;6.57;;
79664;SDS011;69132;44.014;20.918;2023-05-18T11:49:44;42.70;;;24.92;;
79664;SDS011;69132;44.014;20.918;2023-05-18T11:52:21;7.07;;;6.38;;
79664;SDS011;69132;44.014;20.918;2023-05-18T11:57:17;7.75;;;7.07;;
79664;SDS011;69132;44.014;20.918;2023-05-18T11:59:44;9.23;;;7.53;;
79664;SDS011;69132;44.014;20.918;2023-05-18T12:02:22;8.20;;;7.40;;
79664;SDS011;69132;44.014;20.918;2023-05-18T12:04:53;9.00;;;7.70;;
79664;SDS011;69132;44.014;20.918;2023-05-18T12:07:20;6.80;;;6.20;;
79664;SDS011;69132;44.014;20.918;2023-05-18T12:09:47;7.72;;;6.70;;
79664;SDS011;69132;44.014;20.918;2023-05-18T12:12:15;7.03;;;6.30;;
79664;SDS011;69132;44.014;20.918;2023-05-18T12:14:44;7.75;;;7.03;;
79664;SDS011;69132;44.014;20.918;2023-05-18T12:17:11;7.20;;;6.50;;
79664;SDS011;69132;44.014;20.918;2023-05-18T12:19:37;9.75;;;7.63;;
79664;SDS011;69132;44.014;20.918;2023-05-18T12:22:03;8.30;;;6.40;;
79664;SDS011;69132;44.014;20.918;2023-05-18T12:24:31;8.70;;;6.75;;
79664;SDS011;69132;44.014;20.918;2023-05-18T12:27:00;7.30;;;6.35;;
79664;SDS011;69132;44.014;20.918;2023-05-18T12:29:29;10.98;;;6.70;;
79664;SDS011;69132;44.014;20.918;2023-05-18T12:31:55;8.40;;;6.22;;
79664;SDS011;69132;44.014;20.918;2023-05-18T12:34:21;8.32;;;6.38;;
79664;SDS011;69132;44.014;20.918;2023-05-18T12:36:51;7.63;;;6.00;;
79664;SDS011;69132;44.014;20.918;2023-05-18T12:39:18;7.10;;;6.30;;
79664;SDS011;69132;44.014;20.918;2023-05-18T12:41:44;6.70;;;6.00;;
79664;SDS011;69132;44.014;20.918;2023-05-18T12:44:10;9.48;;;7.60;;
79664;SDS011;69132;44.014;20.918;2023-05-18T12:46:37;9.73;;;8.00;;
79664;SDS011;69132;44.014;20.918;2023-05-18T12:49:03;8.77;;;7.22;;
79664;SDS011;69132;44.014;20.918;2023-05-18T12:51:36;8.48;;;6.55;;
79664;SDS011;69132;44.014;20.918;2023-05-18T12:54:03;6.95;;;6.07;;
79664;SDS011;69132;44.014;20.918;2023-05-18T12:59:16;25.92;;;15.30;;
79664;SDS011;69132;44.014;20.918;2023-05-18T13:01:43;13.20;;;8.35;;
79664;SDS011;69132;44.014;20.918;2023-05-18T13:04:13;8.25;;;6.05;;
79664;SDS011;69132;44.014;20.918;2023-05-18T13:06:39;6.70;;;5.72;;
79664;SDS011;69132;44.014;20.918;2023-05-18T13:09:06;7.22;;;5.72;;
79664;SDS011;69132;44.014;20.918;2023-05-18T13:11:32;12.07;;;6.93;;
79664;SDS011;69132;44.014;20.918;2023-05-18T13:16:25;6.25;;;5.50;;
79664;SDS011;69132;44.014;20.918;2023-05-18T13:18:58;7.78;;;6.97;;
79664;SDS011;69132;44.014;20.918;2023-05-18T13:21:25;11.45;;;7.13;;
79664;SDS011;69132;44.014;20.918;2023-05-18T13:23:52;7.50;;;5.82;;
79664;SDS011;69132;44.014;20.918;2023-05-18T13:26:20;7.00;;;5.28;;
79664;SDS011;69132;44.014;20.918;2023-05-18T13:28:48;6.95;;;6.25;;
79664;SDS011;69132;44.014;20.918;2023-05-18T13:31:15;7.88;;;6.65;;
79664;SDS011;69132;44.014;20.918;2023-05-18T13:33:41;9.00;;;7.75;;
79664;SDS011;69132;44.014;20.918;2023-05-18T13:36:08;20.40;;;16.15;;
79664;SDS011;69132;44.014;20.918;2023-05-18T13:38:34;9.30;;;7.60;;
79664;SDS011;69132;44.014;20.918;2023-05-18T13:41:03;9.52;;;7.97;;
79664;SDS011;69132;44.014;20.918;2023-05-18T13:43:30;8.98;;;6.95;;
79664;SDS011;69132;44.014;20.918;2023-05-18T13:45:56;7.78;;;6.80;;
79664;SDS011;69132;44.014;20.918;2023-05-18T13:48:23;7.28;;;5.22;;
79664;SDS011;69132;44.014;20.918;2023-05-18T13:50:53;7.35;;;6.40;;
79664;SDS011;69132;44.014;20.918;2023-05-18T13:53:19;7.45;;;6.65;;
79664;SDS011;69132;44.014;20.918;2023-05-18T13:55:45;7.13;;;6.43;;
79664;SDS011;69132;44.014;20.918;2023-05-18T13:58:11;7.40;;;6.25;;
79664;SDS011;69132;44.014;20.918;2023-05-18T14:00:41;6.18;;;5.68;;
79664;SDS011;69132;44.014;20.918;2023-05-18T14:03:07;7.75;;;6.93;;
79664;SDS011;69132;44.014;20.918;2023-05-18T14:05:34;6.72;;;5.93;;
79664;SDS011;69132;44.014;20.918;2023-05-18T14:08:00;10.32;;;7.25;;
79664;SDS011;69132;44.014;20.918;2023-05-18T14:10:28;8.88;;;6.53;;
79664;SDS011;69132;44.014;20.918;2023-05-18T14:12:54;7.00;;;6.30;;
79664;SDS011;69132;44.014;20.918;2023-05-18T14:15:21;8.18;;;7.28;;
79664;SDS011;69132;44.014;20.918;2023-05-18T14:17:47;8.07;;;7.32;;
79664;SDS011;69132;44.014;20.918;2023-05-18T14:20:13;8.52;;;7.32;;
79664;SDS011;69132;44.014;20.918;2023-05-18T14:22:39;8.65;;;7.75;;
79664;SDS011;69132;44.014;20.918;2023-05-18T14:25:06;9.63;;;7.72;;
79664;SDS011;69132;44.014;20.918;2023-05-18T14:27:35;9.25;;;8.05;;
79664;SDS011;69132;44.014;20.918;2023-05-18T14:30:01;10.43;;;8.27;;
79664;SDS011;69132;44.014;20.918;2023-05-18T14:32:27;11.20;;;8.32;;
79664;SDS011;69132;44.014;20.918;2023-05-18T14:34:53;9.95;;;8.18;;
79664;SDS011;69132;44.014;20.918;2023-05-18T14:37:21;11.10;;;8.25;;
79664;SDS011;69132;44.014;20.918;2023-05-18T14:39:47;11.35;;;8.52;;
79664;SDS011;69132;44.014;20.918;2023-05-18T14:42:14;13.45;;;8.50;;
79664;SDS011;69132;44.014;20.918;2023-05-18T14:44:40;9.77;;;7.35;;
79664;SDS011;69132;44.014;20.918;2023-05-18T14:47:06;11.30;;;7.72;;
79664;SDS011;69132;44.014;20.918;2023-05-18T14:49:34;8.07;;;7.28;;
79664;SDS011;69132;44.014;20.918;2023-05-18T14:52:00;9.55;;;7.80;;
79664;SDS011;69132;44.014;20.918;2023-05-18T14:54:26;8.38;;;6.60;;
79664;SDS011;69132;44.014;20.918;2023-05-18T14:56:52;11.77;;;6.95;;
79664;SDS011;69132;44.014;20.918;2023-05-18T14:59:21;9.30;;;6.80;;
79664;SDS011;69132;44.014;20.918;2023-05-18T15:01:47;10.48;;;7.28;;